createdAt,value
2022-12-01T00:00:55.974Z,31.50
2022-12-01T00:01:57.676Z,31.65
2022-12-01T00:02:59.573Z,32.90
2022-12-01T00:04:01.258Z,32.00
2022-12-01T00:05:02.905Z,32.63
2022-12-01T00:06:05.908Z,32.03
2022-12-01T00:07:07.545Z,32.03
2022-12-01T00:08:09.243Z,33.25
2022-12-01T00:09:33.724Z,34.75
2022-12-01T00:10:35.784Z,30.95
2022-12-01T00:11:38.516Z,32.15
2022-12-01T00:12:43.380Z,32.00
2022-12-01T00:13:44.947Z,32.45
2022-12-01T00:14:54.754Z,32.13
2022-12-01T00:15:56.438Z,32.97
2022-12-01T00:16:58.273Z,32.58
2022-12-01T00:18:00.212Z,31.30
2022-12-01T00:19:02.109Z,33.80
2022-12-01T00:20:05.383Z,33.35
2022-12-01T00:21:13.414Z,31.83
2022-12-01T00:22:15.206Z,32.95
2022-12-01T00:23:16.871Z,34.47
2022-12-01T00:24:18.991Z,31.40
2022-12-01T00:25:21.197Z,32.15
2022-12-01T00:26:23.918Z,33.28
2022-12-01T00:27:25.505Z,32.50
2022-12-01T00:28:27.078Z,32.38
2022-12-01T00:29:28.817Z,31.58
2022-12-01T00:30:30.662Z,31.70
2022-12-01T00:31:32.500Z,32.92
2022-12-01T00:32:34.123Z,33.00
2022-12-01T00:33:35.856Z,32.97
2022-12-01T00:34:38.276Z,34.85
2022-12-01T00:35:39.883Z,33.65
2022-12-01T00:36:41.438Z,31.60
2022-12-01T00:37:43.814Z,31.45
2022-12-01T00:38:45.925Z,32.90
2022-12-01T00:39:48.086Z,32.17
2022-12-01T00:40:49.877Z,31.45
2022-12-01T00:41:51.505Z,30.75
2022-12-01T00:42:53.161Z,33.97
2022-12-01T00:43:54.780Z,31.67
2022-12-01T00:44:56.530Z,30.95
2022-12-01T00:45:58.305Z,32.25
2022-12-01T00:46:59.909Z,31.52
2022-12-01T00:48:01.484Z,31.85
2022-12-01T00:49:03.739Z,31.30
2022-12-01T00:50:05.736Z,34.85
2022-12-01T00:51:07.436Z,33.38
2022-12-01T00:52:09.122Z,33.05
2022-12-01T00:53:10.923Z,32.45
2022-12-01T00:54:12.488Z,32.50
2022-12-01T00:55:14.129Z,31.40
2022-12-01T00:56:15.733Z,32.40
2022-12-01T00:57:17.344Z,32.25
2022-12-01T00:58:18.961Z,31.98
2022-12-01T00:59:20.546Z,34.30
2022-12-01T01:00:22.226Z,34.78
2022-12-01T01:01:24.070Z,35.40
2022-12-01T01:02:25.740Z,33.60
2022-12-01T01:03:28.080Z,33.65
2022-12-01T01:04:31.035Z,32.72
2022-12-01T01:05:36.824Z,33.00
2022-12-01T01:06:38.461Z,31.58
2022-12-01T01:07:40.119Z,32.17
2022-12-01T01:08:41.845Z,31.80
2022-12-01T01:09:43.429Z,32.78
2022-12-01T01:10:47.458Z,31.10
2022-12-01T01:11:49.108Z,31.13
2022-12-01T01:12:50.677Z,30.27
2022-12-01T01:13:52.269Z,34.95
2022-12-01T01:14:53.957Z,32.15
2022-12-01T01:16:04.729Z,33.03
2022-12-01T01:17:06.491Z,30.20
2022-12-01T01:18:09.573Z,32.67
2022-12-01T01:19:11.223Z,31.50
2022-12-01T01:20:13.462Z,33.05
2022-12-01T01:21:17.138Z,34.00
2022-12-01T01:22:19.143Z,32.10
2022-12-01T01:23:20.725Z,31.05
2022-12-01T01:24:22.292Z,31.95
2022-12-01T01:25:24.166Z,33.13
2022-12-01T01:26:28.685Z,32.38
2022-12-01T01:27:30.657Z,32.05
2022-12-01T01:28:32.711Z,33.50
2022-12-01T01:29:34.491Z,32.08
2022-12-01T01:30:39.615Z,32.95
2022-12-01T01:31:41.410Z,32.45
2022-12-01T01:32:43.224Z,33.25
2022-12-01T01:33:45.123Z,30.77
2022-12-01T01:34:46.798Z,31.25
2022-12-01T01:35:48.451Z,33.33
2022-12-01T01:36:50.068Z,33.38
2022-12-01T01:37:51.885Z,32.60
2022-12-01T01:38:55.029Z,32.15
2022-12-01T01:39:56.599Z,31.02
2022-12-01T01:40:58.565Z,31.85
2022-12-01T01:42:00.148Z,30.45
2022-12-01T01:43:01.729Z,31.02
2022-12-01T01:44:03.668Z,32.38
2022-12-01T01:45:21.171Z,30.83
2022-12-01T01:46:28.359Z,32.00
2022-12-01T01:47:35.800Z,31.88
2022-12-01T01:48:40.257Z,30.35
2022-12-01T01:49:42.854Z,30.75
2022-12-01T01:50:44.518Z,31.15
2022-12-01T01:51:52.551Z,31.77
2022-12-01T01:53:01.186Z,32.13
2022-12-01T01:54:07.893Z,28.75
2022-12-01T01:55:09.787Z,30.50
2022-12-01T01:56:11.440Z,31.50
2022-12-01T01:57:16.734Z,30.10
2022-12-01T01:58:19.711Z,30.75
2022-12-01T01:59:29.396Z,31.63
2022-12-01T02:00:31.059Z,31.15
2022-12-01T02:01:32.755Z,29.92
2022-12-01T02:02:44.927Z,30.35
2022-12-01T02:03:48.305Z,30.58
2022-12-01T02:04:56.773Z,30.38
2022-12-01T02:06:04.530Z,28.92
2022-12-01T02:07:08.353Z,28.92
2022-12-01T02:08:12.297Z,28.77
2022-12-01T02:09:15.807Z,29.27
2022-12-01T02:10:22.589Z,30.20
2022-12-01T02:11:33.049Z,29.70
2022-12-01T02:12:53.990Z,30.10
2022-12-01T02:14:14.510Z,25.90
2022-12-01T02:15:37.753Z,30.08
2022-12-01T02:17:08.287Z,27.52
2022-12-01T02:18:42.691Z,27.50
2022-12-01T02:20:22.372Z,27.83
2022-12-01T02:21:42.819Z,27.40
2022-12-01T02:23:09.495Z,27.65
2022-12-01T02:24:23.320Z,27.05
2022-12-01T02:25:49.116Z,26.85
2022-12-01T02:27:06.642Z,28.25
2022-12-01T02:28:23.083Z,29.55
2022-12-01T02:29:43.194Z,26.98
2022-12-01T02:30:50.776Z,29.80
2022-12-01T02:32:18.599Z,27.35
2022-12-01T02:33:50.912Z,28.50
2022-12-01T02:35:21.029Z,28.17
2022-12-01T02:36:36.890Z,27.77
2022-12-01T02:37:59.138Z,27.75
2022-12-01T02:39:17.145Z,27.73
2022-12-01T02:40:47.707Z,27.70
2022-12-01T02:41:58.875Z,26.42
2022-12-01T02:43:37.386Z,27.75
2022-12-01T02:44:43.493Z,27.70
2022-12-01T02:46:14.645Z,28.83
2022-12-01T02:47:17.835Z,28.88
2022-12-01T02:48:22.894Z,28.83
2022-12-01T02:49:29.508Z,29.00
2022-12-01T02:50:34.823Z,26.15
2022-12-01T02:51:39.990Z,24.98
2022-12-01T02:52:42.961Z,25.02
2022-12-01T02:53:44.870Z,26.65
2022-12-01T02:54:48.406Z,26.45
2022-12-01T02:55:53.883Z,23.65
2022-12-01T02:56:55.476Z,24.90
2022-12-01T02:57:57.036Z,26.30
2022-12-01T02:58:58.611Z,25.60
2022-12-01T03:00:01.128Z,25.40
2022-12-01T03:01:02.756Z,23.92
2022-12-01T03:02:13.537Z,26.35
2022-12-01T03:03:30.152Z,25.15
2022-12-01T03:04:54.891Z,24.13
2022-12-01T03:06:08.425Z,25.10
2022-12-01T03:07:21.687Z,25.38
2022-12-01T03:08:35.557Z,24.33
2022-12-01T03:10:17.064Z,26.20
2022-12-01T03:11:28.095Z,23.17
2022-12-01T03:12:43.009Z,21.98
2022-12-01T03:13:57.055Z,23.77
2022-12-01T03:15:35.746Z,23.75
2022-12-01T03:16:50.814Z,22.55
2022-12-01T03:18:13.938Z,23.73
2022-12-01T03:19:29.397Z,23.60
2022-12-01T03:20:30.919Z,24.80
2022-12-01T03:22:09.800Z,22.98
2022-12-01T03:23:16.281Z,22.83
2022-12-01T03:24:21.242Z,21.98
2022-12-01T03:25:26.221Z,22.38
2022-12-01T03:26:32.518Z,22.88
2022-12-01T03:27:37.703Z,23.33
2022-12-01T03:28:47.286Z,22.60
2022-12-01T03:29:53.126Z,23.00
2022-12-01T03:30:59.267Z,23.67
2022-12-01T03:32:05.954Z,21.90
2022-12-01T03:33:19.154Z,21.90
2022-12-01T03:34:26.675Z,20.02
2022-12-01T03:35:36.424Z,20.08
2022-12-01T03:36:44.023Z,19.73
2022-12-01T03:38:04.658Z,21.95
2022-12-01T03:39:12.580Z,20.83
2022-12-01T03:40:18.301Z,20.98
2022-12-01T03:41:24.321Z,19.52
2022-12-01T03:42:38.591Z,20.02
2022-12-01T03:43:45.081Z,20.15
2022-12-01T03:44:51.831Z,19.98
2022-12-01T03:45:56.824Z,19.58
2022-12-01T03:47:04.482Z,21.00
2022-12-01T03:48:07.092Z,20.08
2022-12-01T03:49:09.674Z,19.92
2022-12-01T03:50:13.999Z,21.20
2022-12-01T03:51:39.700Z,20.38
2022-12-01T03:53:06.226Z,21.25
2022-12-01T03:54:13.665Z,19.85
2022-12-01T03:55:22.051Z,18.98
2022-12-01T03:56:27.274Z,19.05
2022-12-01T03:57:36.868Z,20.00
2022-12-01T03:58:43.805Z,21.75
2022-12-01T03:59:47.937Z,20.45
2022-12-01T04:00:53.298Z,20.40
2022-12-01T04:01:55.143Z,21.38
2022-12-01T04:03:03.714Z,21.33
2022-12-01T04:04:08.030Z,21.17
2022-12-01T04:05:09.691Z,21.02
2022-12-01T04:06:11.372Z,21.75
2022-12-01T04:07:14.228Z,22.30
2022-12-01T04:08:15.855Z,22.25
2022-12-01T04:09:17.566Z,21.58
2022-12-01T04:10:19.305Z,22.58
2022-12-01T04:11:39.503Z,22.63
2022-12-01T04:12:41.092Z,21.67
2022-12-01T04:13:42.667Z,22.80
2022-12-01T04:14:44.260Z,20.65
2022-12-01T04:15:45.843Z,23.17
2022-12-01T04:16:47.886Z,20.30
2022-12-01T04:17:49.480Z,20.05
2022-12-01T04:18:51.080Z,20.20
2022-12-01T04:19:53.081Z,19.15
2022-12-01T04:20:54.665Z,20.25
2022-12-01T04:21:56.281Z,18.30
2022-12-01T04:22:57.877Z,19.98
2022-12-01T04:24:02.552Z,18.58
2022-12-01T04:25:06.511Z,18.80
2022-12-01T04:26:12.628Z,18.80
2022-12-01T04:27:17.259Z,18.65
2022-12-01T04:28:18.814Z,18.88
2022-12-01T04:29:20.412Z,17.70
2022-12-01T04:30:22.014Z,18.92
2022-12-01T04:31:23.710Z,15.68
2022-12-01T04:32:26.115Z,16.10
2022-12-01T04:33:29.397Z,16.75
2022-12-01T04:34:31.203Z,17.75
2022-12-01T04:35:32.861Z,18.63
2022-12-01T04:36:34.985Z,16.73
2022-12-01T04:37:37.132Z,18.52
2022-12-01T04:38:38.737Z,17.65
2022-12-01T04:39:42.051Z,16.52
2022-12-01T04:40:43.640Z,15.88
2022-12-01T04:41:45.261Z,18.27
2022-12-01T04:42:46.901Z,17.45
2022-12-01T04:43:48.665Z,17.58
2022-12-01T04:44:50.306Z,17.77
2022-12-01T04:45:51.893Z,16.92
2022-12-01T04:46:53.972Z,17.40
2022-12-01T04:47:55.647Z,18.48
2022-12-01T04:48:57.359Z,18.13
2022-12-01T04:49:58.954Z,17.92
2022-12-01T04:51:00.549Z,18.33
2022-12-01T04:52:02.116Z,18.77
2022-12-01T04:53:04.517Z,17.55
2022-12-01T04:54:06.508Z,18.45
2022-12-01T04:55:08.511Z,17.55
2022-12-01T04:56:10.693Z,20.77
2022-12-01T04:57:12.345Z,19.25
2022-12-01T04:58:14.134Z,22.80
2022-12-01T04:59:15.885Z,21.00
2022-12-01T05:00:18.145Z,18.20
2022-12-01T05:01:19.837Z,17.63
2022-12-01T05:02:21.642Z,17.60
2022-12-01T05:03:23.309Z,16.25
2022-12-01T05:04:24.953Z,17.17
2022-12-01T05:05:26.898Z,18.55
2022-12-01T05:06:29.340Z,19.15
2022-12-01T05:07:31.159Z,18.92
2022-12-01T05:08:34.172Z,17.92
2022-12-01T05:09:35.934Z,18.98
2022-12-01T05:10:38.219Z,26.85
2022-12-01T05:11:39.917Z,24.00
2022-12-01T05:12:41.580Z,23.10
2022-12-01T05:13:45.262Z,19.20
2022-12-01T05:14:46.861Z,18.45
2022-12-01T05:15:49.228Z,19.70
2022-12-01T05:16:51.091Z,20.38
2022-12-01T05:17:52.906Z,18.95
2022-12-01T05:19:16.204Z,18.33
2022-12-01T05:20:43.025Z,19.77
2022-12-01T05:21:46.056Z,18.60
2022-12-01T05:23:04.912Z,19.05
2022-12-01T05:24:08.651Z,16.77
2022-12-01T05:25:10.452Z,17.88
2022-12-01T05:26:12.173Z,17.65
2022-12-01T05:27:13.741Z,19.98
2022-12-01T05:28:15.373Z,19.70
2022-12-01T05:29:17.069Z,18.30
2022-12-01T05:30:18.743Z,19.05
2022-12-01T05:31:20.500Z,19.80
2022-12-01T05:32:22.144Z,19.80
2022-12-01T05:33:25.408Z,18.20
2022-12-01T05:34:26.989Z,20.30
2022-12-01T05:35:28.870Z,18.33
2022-12-01T05:36:30.745Z,19.30
2022-12-01T05:37:34.547Z,20.42
2022-12-01T05:38:36.109Z,20.17
2022-12-01T05:39:37.713Z,21.35
2022-12-01T05:40:39.411Z,20.15
2022-12-01T05:41:40.974Z,18.67
2022-12-01T05:42:42.560Z,17.75
2022-12-01T05:43:44.494Z,18.50
2022-12-01T05:44:46.133Z,18.33
2022-12-01T05:45:49.858Z,18.83
2022-12-01T05:46:51.531Z,16.73
2022-12-01T05:47:57.392Z,17.73
2022-12-01T05:48:58.981Z,18.15
2022-12-01T05:50:05.179Z,18.67
2022-12-01T05:51:16.284Z,19.98
2022-12-01T05:52:17.852Z,18.73
2022-12-01T05:53:19.707Z,19.13
2022-12-01T05:54:21.277Z,19.48
2022-12-01T05:55:22.882Z,17.70
2022-12-01T05:56:24.492Z,18.52
2022-12-01T05:57:26.215Z,16.83
2022-12-01T05:58:27.777Z,17.73
2022-12-01T05:59:29.360Z,18.45
2022-12-01T06:00:30.971Z,18.50
2022-12-01T06:01:32.577Z,19.98
2022-12-01T06:02:34.163Z,18.67
2022-12-01T06:03:35.761Z,18.35
2022-12-01T06:04:37.368Z,19.23
2022-12-01T06:05:39.268Z,17.67
2022-12-01T06:06:40.959Z,17.92
2022-12-01T06:07:43.185Z,18.90
2022-12-01T06:08:44.803Z,18.67
2022-12-01T06:09:46.693Z,19.00
2022-12-01T06:10:48.504Z,19.08
2022-12-01T06:11:52.526Z,18.08
2022-12-01T06:12:54.398Z,18.90
2022-12-01T06:13:56.132Z,18.75
2022-12-01T06:14:57.763Z,19.60
2022-12-01T06:16:01.060Z,20.00
2022-12-01T06:17:02.794Z,18.85
2022-12-01T06:18:04.465Z,18.52
2022-12-01T06:19:06.040Z,19.05
2022-12-01T06:20:09.162Z,18.35
2022-12-01T06:21:10.889Z,18.25
2022-12-01T06:22:12.587Z,19.30
2022-12-01T06:23:14.177Z,17.58
2022-12-01T06:24:15.761Z,18.48
2022-12-01T06:25:17.467Z,18.60
2022-12-01T06:26:19.239Z,17.70
2022-12-01T06:27:20.919Z,18.48
2022-12-01T06:28:22.540Z,19.00
2022-12-01T06:29:24.131Z,17.45
2022-12-01T06:30:26.023Z,18.60
2022-12-01T06:31:27.639Z,19.13
2022-12-01T06:32:29.270Z,18.40
2022-12-01T06:33:31.749Z,18.70
2022-12-01T06:34:33.408Z,18.05
2022-12-01T06:35:35.711Z,19.63
2022-12-01T06:36:37.289Z,19.98
2022-12-01T06:37:38.872Z,20.38
2022-12-01T06:38:40.430Z,20.40
2022-12-01T06:39:42.541Z,19.10
2022-12-01T06:40:45.491Z,20.00
2022-12-01T06:41:47.802Z,20.77
2022-12-01T06:42:49.452Z,18.85
2022-12-01T06:43:51.056Z,19.05
2022-12-01T06:44:52.681Z,19.23
2022-12-01T06:46:00.814Z,18.20
2022-12-01T06:47:03.362Z,18.63
2022-12-01T06:48:05.534Z,21.02
2022-12-01T06:49:10.674Z,19.58
2022-12-01T06:50:12.614Z,20.50
2022-12-01T06:51:14.342Z,20.55
2022-12-01T06:52:16.197Z,20.65
2022-12-01T06:53:17.968Z,25.25
2022-12-01T06:54:21.406Z,19.75
2022-12-01T06:55:23.017Z,20.13
2022-12-01T06:56:25.737Z,19.27
2022-12-01T06:57:27.643Z,20.70
2022-12-01T06:58:30.580Z,26.25
2022-12-01T06:59:32.879Z,28.90
2022-12-01T07:00:35.028Z,22.98
2022-12-01T07:01:36.936Z,41.38
2022-12-01T07:02:39.240Z,24.30
2022-12-01T07:03:41.227Z,20.13
2022-12-01T07:04:42.992Z,21.17
2022-12-01T07:05:44.806Z,20.10
2022-12-01T07:06:46.464Z,30.23
2022-12-01T07:07:48.295Z,29.77
2022-12-01T07:08:50.497Z,24.45
2022-12-01T07:09:52.273Z,38.47
2022-12-01T07:11:05.692Z,23.35
2022-12-01T07:12:07.728Z,21.35
2022-12-01T07:13:09.337Z,22.40
2022-12-01T07:14:22.845Z,20.75
2022-12-01T07:15:24.479Z,19.95
2022-12-01T07:16:26.292Z,20.55
2022-12-01T07:17:28.739Z,19.67
2022-12-01T07:18:31.023Z,20.80
2022-12-01T07:19:32.714Z,21.40
2022-12-01T07:20:34.274Z,22.58
2022-12-01T07:21:35.882Z,21.10
2022-12-01T07:22:38.650Z,20.73
2022-12-01T07:23:40.610Z,21.85
2022-12-01T07:24:42.501Z,21.70
2022-12-01T07:25:44.382Z,23.92
2022-12-01T07:26:46.019Z,24.75
2022-12-01T07:27:47.674Z,23.65
2022-12-01T07:28:49.460Z,20.65
2022-12-01T07:29:51.486Z,23.85
2022-12-01T07:30:53.443Z,22.85
2022-12-01T07:31:55.158Z,20.58
2022-12-01T07:32:57.162Z,21.15
2022-12-01T07:33:59.139Z,20.20
2022-12-01T07:35:00.857Z,19.55
2022-12-01T07:36:03.472Z,20.50
2022-12-01T07:37:05.156Z,21.08
2022-12-01T07:38:06.952Z,20.20
2022-12-01T07:39:09.159Z,20.90
2022-12-01T07:40:11.944Z,21.48
2022-12-01T07:41:16.748Z,20.40
2022-12-01T07:42:18.645Z,20.80
2022-12-01T07:43:20.429Z,19.85
2022-12-01T07:44:22.084Z,19.15
2022-12-01T07:45:24.042Z,19.85
2022-12-01T07:46:27.619Z,20.25
2022-12-01T07:47:29.355Z,19.75
2022-12-01T07:48:32.584Z,19.42
2022-12-01T07:49:34.819Z,19.85
2022-12-01T07:50:37.013Z,19.67
2022-12-01T07:51:38.968Z,20.05
2022-12-01T07:52:46.762Z,20.23
2022-12-01T07:53:55.380Z,20.17
2022-12-01T07:54:59.954Z,20.85
2022-12-01T07:56:07.040Z,18.67
2022-12-01T07:57:10.523Z,18.83
2022-12-01T07:58:14.860Z,18.98
2022-12-01T07:59:17.984Z,21.67
2022-12-01T08:00:46.732Z,21.33
2022-12-01T08:01:46.314Z,20.17
2022-12-01T08:02:54.109Z,20.58
2022-12-01T08:03:57.754Z,20.77
2022-12-01T08:05:10.525Z,20.05
2022-12-01T08:06:12.652Z,20.95
2022-12-01T08:07:19.841Z,19.30
2022-12-01T08:08:27.042Z,21.23
2022-12-01T08:09:29.019Z,19.30
2022-12-01T08:10:31.143Z,20.30
2022-12-01T08:11:38.227Z,22.15
2022-12-01T08:12:41.939Z,19.02
2022-12-01T08:13:44.529Z,19.67
2022-12-01T08:14:46.447Z,19.83
2022-12-01T08:15:48.398Z,19.50
2022-12-01T08:16:50.509Z,20.67
2022-12-01T08:17:55.130Z,19.17
2022-12-01T08:18:56.754Z,19.45
2022-12-01T08:19:58.312Z,19.80
2022-12-01T08:20:59.957Z,18.60
2022-12-01T08:22:01.571Z,18.60
2022-12-01T08:23:04.146Z,19.20
2022-12-01T08:24:06.225Z,18.10
2022-12-01T08:25:08.472Z,19.23
2022-12-01T08:26:18.504Z,17.00
2022-12-01T08:27:20.295Z,17.52
2022-12-01T08:28:22.349Z,16.00
2022-12-01T08:29:23.934Z,16.83
2022-12-01T08:30:25.691Z,16.55
2022-12-01T08:31:30.329Z,17.17
2022-12-01T08:32:32.006Z,16.80
2022-12-01T08:33:33.859Z,16.10
2022-12-01T08:34:38.365Z,17.33
2022-12-01T08:35:40.114Z,17.30
2022-12-01T08:36:44.231Z,18.90
2022-12-01T08:37:46.030Z,16.38
2022-12-01T08:38:50.279Z,16.90
2022-12-01T08:39:52.135Z,16.98
2022-12-01T08:41:03.675Z,18.98
2022-12-01T08:42:08.047Z,19.70
2022-12-01T08:43:15.143Z,17.70
2022-12-01T08:44:25.027Z,17.95
2022-12-01T08:45:26.882Z,17.33
2022-12-01T08:46:32.390Z,16.75
2022-12-01T08:47:34.182Z,17.60
2022-12-01T08:48:35.980Z,18.17
2022-12-01T08:49:39.860Z,16.98
2022-12-01T08:50:41.514Z,17.08
2022-12-01T08:51:43.231Z,16.52
2022-12-01T08:52:45.619Z,18.45
2022-12-01T08:53:49.630Z,17.02
2022-12-01T08:54:52.407Z,16.55
2022-12-01T08:55:56.423Z,17.40
2022-12-01T08:57:00.715Z,16.85
2022-12-01T08:58:02.406Z,18.90
2022-12-01T08:59:04.748Z,18.55
2022-12-01T09:00:07.859Z,18.42
2022-12-01T09:02:26.025Z,17.95
2022-12-01T09:03:27.668Z,17.55
2022-12-01T09:04:29.494Z,17.10
2022-12-01T09:05:31.103Z,18.83
2022-12-01T09:06:37.670Z,19.13
2022-12-01T09:07:39.342Z,18.80
2022-12-01T09:08:41.319Z,19.80
2022-12-01T09:09:44.594Z,17.80
2022-12-01T09:10:53.108Z,19.27
2022-12-01T09:11:55.550Z,17.48
2022-12-01T09:12:57.499Z,17.70
2022-12-01T09:14:00.038Z,18.70
2022-12-01T09:15:01.626Z,18.60
2022-12-01T09:16:06.393Z,18.00
2022-12-01T09:17:09.064Z,18.98
2022-12-01T09:18:10.676Z,18.73
2022-12-01T09:19:13.575Z,18.90
2022-12-01T09:20:15.436Z,18.60
2022-12-01T09:21:20.086Z,20.20
2022-12-01T09:22:21.680Z,18.02
2022-12-01T09:23:24.055Z,17.95
2022-12-01T09:24:25.962Z,19.25
2022-12-01T09:25:28.309Z,19.00
2022-12-01T09:26:30.327Z,18.70
2022-12-01T09:27:31.942Z,17.90
2022-12-01T09:28:33.756Z,17.50
2022-12-01T09:29:35.387Z,19.05
2022-12-01T09:30:37.313Z,19.40
2022-12-01T09:31:39.204Z,18.13
2022-12-01T09:32:40.895Z,17.52
2022-12-01T09:33:42.735Z,17.35
2022-12-01T09:34:44.466Z,17.30
2022-12-01T09:35:46.062Z,18.25
2022-12-01T09:36:48.017Z,19.40
2022-12-01T09:37:49.616Z,17.10
2022-12-01T09:38:51.275Z,17.55
2022-12-01T09:39:52.864Z,17.75
2022-12-01T09:40:55.270Z,17.98
2022-12-01T09:42:08.760Z,18.77
2022-12-01T09:43:22.585Z,17.80
2022-12-01T09:44:26.963Z,17.95
2022-12-01T09:45:31.577Z,18.88
2022-12-01T09:46:38.394Z,17.25
2022-12-01T09:47:42.686Z,17.98
2022-12-01T09:48:47.736Z,17.30
2022-12-01T09:50:06.771Z,17.73
2022-12-01T09:51:20.724Z,17.05
2022-12-01T09:52:25.152Z,18.13
2022-12-01T09:53:28.897Z,19.42
2022-12-01T09:54:30.548Z,19.15
2022-12-01T09:55:33.617Z,17.60
2022-12-01T09:56:45.102Z,18.75
2022-12-01T09:57:51.899Z,15.55
2022-12-01T09:58:59.548Z,16.88
2022-12-01T10:00:07.476Z,17.40
2022-12-01T10:01:17.169Z,19.20
2022-12-01T10:02:41.845Z,19.52
2022-12-01T10:03:48.968Z,19.38
2022-12-01T10:04:52.600Z,17.50
2022-12-01T10:07:31.779Z,14.20
2022-12-01T10:08:37.232Z,17.38
2022-12-01T10:09:52.098Z,16.63
2022-12-01T10:10:58.428Z,18.00
2022-12-01T10:12:11.035Z,15.60
2022-12-01T10:13:19.755Z,18.15
2022-12-01T10:14:22.043Z,16.65
2022-12-01T10:15:56.339Z,16.08
2022-12-01T10:17:35.858Z,16.98
2022-12-01T10:19:10.771Z,15.15
2022-12-01T10:20:26.557Z,15.27
2022-12-01T10:21:38.801Z,17.40
2022-12-01T10:22:46.358Z,17.05
2022-12-01T10:23:54.227Z,16.25
2022-12-01T10:25:04.106Z,15.90
2022-12-01T10:26:16.746Z,16.45
2022-12-01T10:27:24.155Z,16.73
2022-12-01T10:28:42.921Z,16.60
2022-12-01T10:29:54.145Z,17.55
2022-12-01T10:31:03.997Z,18.08
2022-12-01T10:32:15.006Z,18.38
2022-12-01T10:33:21.834Z,18.80
2022-12-01T10:34:30.242Z,18.88
2022-12-01T10:35:37.693Z,18.55
2022-12-01T10:36:39.526Z,17.67
2022-12-01T10:37:41.779Z,17.75
2022-12-01T10:38:43.437Z,17.23
2022-12-01T10:39:48.272Z,18.13
2022-12-01T10:40:50.849Z,15.65
2022-12-01T10:41:52.634Z,15.35
2022-12-01T10:42:54.908Z,16.60
2022-12-01T10:44:00.771Z,17.00
2022-12-01T10:45:05.668Z,16.83
2022-12-01T10:46:21.551Z,16.70
2022-12-01T10:47:25.547Z,17.13
2022-12-01T10:48:27.266Z,17.75
2022-12-01T10:49:40.482Z,19.60
2022-12-01T10:50:44.750Z,17.80
2022-12-01T10:51:56.584Z,18.55
2022-12-01T10:52:58.187Z,17.00
2022-12-01T10:54:08.013Z,19.40
2022-12-01T10:55:37.355Z,17.65
2022-12-01T10:56:41.553Z,17.92
2022-12-01T10:57:45.513Z,18.08
2022-12-01T10:58:53.844Z,18.08
2022-12-01T11:00:02.001Z,16.30
2022-12-01T11:01:06.571Z,18.33
2022-12-01T11:02:17.782Z,18.05
2022-12-01T11:03:23.607Z,17.98
2022-12-01T11:04:42.465Z,18.60
2022-12-01T11:05:44.096Z,16.33
2022-12-01T11:06:49.970Z,17.45
2022-12-01T11:07:52.421Z,17.02
2022-12-01T11:08:57.983Z,16.85
2022-12-01T11:10:21.455Z,18.50
2022-12-01T11:11:40.561Z,16.73
2022-12-01T11:12:44.831Z,17.48
2022-12-01T11:13:46.503Z,18.20
2022-12-01T11:14:50.967Z,17.98
2022-12-01T11:15:58.457Z,19.67
2022-12-01T11:17:35.592Z,17.80
2022-12-01T11:18:38.552Z,17.52
2022-12-01T11:19:40.254Z,18.00
2022-12-01T11:20:42.085Z,16.35
2022-12-01T11:21:52.457Z,17.85
2022-12-01T11:23:24.446Z,18.58
2022-12-01T11:24:39.255Z,17.77
2022-12-01T11:25:41.315Z,16.17
2022-12-01T11:26:43.033Z,16.42
2022-12-01T11:27:57.471Z,15.20
2022-12-01T11:30:22.662Z,17.20
2022-12-01T11:31:35.975Z,14.93
2022-12-01T11:32:39.551Z,16.98
2022-12-01T11:33:54.591Z,16.80
2022-12-01T11:35:08.070Z,16.27
2022-12-01T11:36:15.894Z,17.92
2022-12-01T11:37:21.171Z,15.82
2022-12-01T11:38:30.962Z,16.75
2022-12-01T11:39:42.518Z,17.30
2022-12-01T11:41:04.859Z,15.60
2022-12-01T11:43:29.237Z,17.52
2022-12-01T11:44:50.908Z,18.50
2022-12-01T11:45:55.505Z,15.32
2022-12-01T11:47:21.795Z,15.70
2022-12-01T11:48:25.931Z,16.48
2022-12-01T11:49:30.183Z,17.02
2022-12-01T11:50:35.269Z,17.02
2022-12-01T11:51:37.629Z,16.88
2022-12-01T11:52:46.959Z,17.05
2022-12-01T11:53:48.810Z,16.65
2022-12-01T11:55:21.032Z,17.15
2022-12-01T11:56:31.136Z,16.15
2022-12-01T11:57:34.662Z,15.90
2022-12-01T11:58:36.616Z,15.88
2022-12-01T11:59:38.342Z,16.33
2022-12-01T12:00:49.169Z,16.65
2022-12-01T12:02:21.292Z,15.60
2022-12-01T12:03:42.727Z,16.83
2022-12-01T12:05:03.377Z,16.70
2022-12-01T12:08:09.008Z,14.38
2022-12-01T12:09:30.787Z,15.90
2022-12-01T12:10:39.557Z,14.93
2022-12-01T12:12:14.702Z,15.05
2022-12-01T12:13:16.246Z,14.52
2022-12-01T12:14:31.991Z,16.25
2022-12-01T12:15:33.547Z,15.57
2022-12-01T12:17:00.733Z,16.63
2022-12-01T12:18:21.110Z,14.75
2022-12-01T12:20:06.030Z,15.43
2022-12-01T12:21:07.718Z,14.85
2022-12-01T12:22:40.889Z,14.65
2022-12-01T12:24:01.291Z,15.40
2022-12-01T12:25:34.316Z,14.73
2022-12-01T12:26:47.328Z,13.15
2022-12-01T12:28:09.460Z,14.65
2022-12-01T12:29:37.442Z,14.05
2022-12-01T12:31:12.949Z,13.20
2022-12-01T12:32:59.235Z,14.35
2022-12-01T12:34:31.335Z,14.60
2022-12-01T12:35:32.960Z,13.65
2022-12-01T12:36:51.829Z,16.25
2022-12-01T12:38:09.074Z,16.08
2022-12-01T12:40:05.900Z,15.50
2022-12-01T12:41:46.718Z,16.05
2022-12-01T12:43:04.054Z,16.20
2022-12-01T12:44:31.118Z,16.88
2022-12-01T12:46:02.006Z,15.35
2022-12-01T12:47:18.440Z,15.30
2022-12-01T12:48:50.883Z,15.80
2022-12-01T12:50:27.273Z,15.85
2022-12-01T12:51:36.592Z,16.15
2022-12-01T12:52:42.858Z,16.17
2022-12-01T12:53:52.394Z,17.08
2022-12-01T12:55:12.650Z,16.90
2022-12-01T12:56:18.095Z,17.38
2022-12-01T12:57:28.234Z,17.02
2022-12-01T12:58:36.330Z,18.98
2022-12-01T12:59:50.073Z,17.75
2022-12-01T13:00:59.180Z,18.00
2022-12-01T13:02:09.550Z,17.38
2022-12-01T13:03:23.344Z,17.35
2022-12-01T13:04:42.292Z,17.83
2022-12-01T13:05:58.916Z,17.80
2022-12-01T13:07:12.271Z,16.48
2022-12-01T13:08:41.676Z,17.70
2022-12-01T13:09:49.280Z,17.10
2022-12-01T13:10:58.039Z,16.27
2022-12-01T13:12:08.228Z,16.25
2022-12-01T13:13:37.462Z,17.55
2022-12-01T13:14:41.215Z,17.05
2022-12-01T13:15:44.080Z,17.17
2022-12-01T13:16:48.802Z,17.65
2022-12-01T13:17:58.175Z,18.10
2022-12-01T13:19:30.853Z,17.90
2022-12-01T13:20:34.723Z,17.65
2022-12-01T13:21:40.714Z,18.35
2022-12-01T13:22:42.819Z,19.35
2022-12-01T13:23:46.956Z,18.95
2022-12-01T13:24:48.812Z,18.02
2022-12-01T13:25:56.449Z,18.67
2022-12-01T13:27:03.023Z,19.55
2022-12-01T13:28:13.054Z,19.67
2022-12-01T13:29:21.578Z,18.63
2022-12-01T13:30:25.762Z,17.63
2022-12-01T13:31:27.579Z,17.80
2022-12-01T13:32:43.052Z,20.35
2022-12-01T13:34:02.463Z,18.15
2022-12-01T13:35:37.350Z,18.45
2022-12-01T13:36:49.418Z,17.73
2022-12-01T13:37:51.348Z,17.00
2022-12-01T13:38:58.062Z,18.42
2022-12-01T13:40:27.114Z,17.48
2022-12-01T13:41:34.896Z,15.80
2022-12-01T13:42:37.290Z,18.15
2022-12-01T13:43:58.842Z,17.13
2022-12-01T13:45:06.761Z,17.02
2022-12-01T13:46:24.100Z,18.02
2022-12-01T13:47:31.533Z,18.02
2022-12-01T13:48:41.934Z,19.20
2022-12-01T13:49:49.165Z,17.02
2022-12-01T13:51:02.349Z,18.17
2022-12-01T13:52:23.174Z,18.20
2022-12-01T13:53:36.189Z,17.23
2022-12-01T13:54:37.906Z,19.42
2022-12-01T13:56:07.197Z,19.65
2022-12-01T13:57:13.430Z,19.70
2022-12-01T13:58:15.084Z,18.17
2022-12-01T13:59:41.208Z,18.83
2022-12-01T14:00:43.070Z,17.52
2022-12-01T14:01:46.596Z,19.65
2022-12-01T14:03:17.218Z,19.38
2022-12-01T14:04:27.391Z,19.05
2022-12-01T14:05:53.738Z,18.88
2022-12-01T14:07:16.911Z,17.25
2022-12-01T14:08:25.281Z,18.80
2022-12-01T14:09:39.387Z,19.63
2022-12-01T14:10:41.195Z,18.08
2022-12-01T14:11:56.915Z,17.20
2022-12-01T14:13:04.811Z,18.75
2022-12-01T14:14:08.945Z,19.77
2022-12-01T14:15:42.114Z,22.23
2022-12-01T14:16:49.371Z,18.85
2022-12-01T14:18:23.904Z,19.80
2022-12-01T14:19:31.454Z,18.45
2022-12-01T14:20:37.761Z,19.10
2022-12-01T14:21:40.956Z,19.40
2022-12-01T14:22:46.003Z,18.50
2022-12-01T14:24:19.775Z,19.17
2022-12-01T14:25:21.362Z,19.10
2022-12-01T14:26:23.328Z,21.05
2022-12-01T14:27:36.660Z,19.23
2022-12-01T14:29:00.492Z,19.80
2022-12-01T14:30:46.715Z,18.92
2022-12-01T14:31:51.148Z,18.98
2022-12-01T14:33:12.755Z,20.05